Time;durP1;ratioP1;P1;durP2;ratioP2;P2;SDS_P1;SDS_P2;PMS_P1;PMS_P2;Temp;Humidity;BMP_temperature;BMP_pressure;BME280_temperature;BME280_humidity;BME280_pressure;Samples;Min_cycle;Max_cycle;Signal;HPM_P1;HPM_P2
2022/05/13 00:08:34;;;;;;;49.53;28.88;;;11.50;99.90;;;;;;21157639;27;20028;-53
2022/05/13 00:18:37;;;;;;;43.13;23.83;;;11.40;99.90;;;;;;21118491;28;20660;-52
2022/05/13 00:28:39;;;;;;;40.85;22.52;;;11.30;99.90;;;;;;21134389;28;20467;-52
2022/05/13 00:38:42;;;;;;;40.25;20.13;;;11.30;99.90;;;;;;21133734;28;20039;-53
2022/05/13 00:48:46;;;;;;;39.67;21.63;;;11.20;99.90;;;;;;21171612;27;20047;-53
2022/05/13 00:58:55;;;;;;;29.17;19.13;;;11.20;99.90;;;;;;21189601;27;20410;-57
2022/05/13 01:09:00;;;;;;;39.17;21.23;;;11.00;99.90;;;;;;21186026;27;20095;-51
2022/05/13 01:19:05;;;;;;;41.85;23.08;;;11.10;99.90;;;;;;21135464;28;20728;-51
2022/05/13 01:29:08;;;;;;;39.08;21.33;;;11.00;99.90;;;;;;21142665;27;20040;-58
2022/05/13 01:39:11;;;;;;;36.72;21.33;;;11.10;99.90;;;;;;21174177;27;20100;-52
2022/05/13 01:49:13;;;;;;;31.00;18.67;;;10.90;99.90;;;;;;21144828;28;20063;-52
2022/05/13 01:59:15;;;;;;;34.92;20.67;;;10.90;99.90;;;;;;21128138;28;20065;-53
2022/05/13 02:09:18;;;;;;;31.45;20.40;;;10.80;99.90;;;;;;21127352;28;20175;-52
2022/05/13 02:19:21;;;;;;;31.50;18.73;;;11.00;99.90;;;;;;21127097;28;20088;-52
2022/05/13 02:29:24;;;;;;;34.70;20.23;;;11.00;99.90;;;;;;21126723;28;20545;-53
2022/05/13 02:39:26;;;;;;;46.53;20.40;;;11.00;99.90;;;;;;21126035;28;20115;-58
2022/05/13 02:49:29;;;;;;;42.97;24.10;;;10.90;99.90;;;;;;21069320;28;20082;-58
2022/05/13 02:59:39;;;;;;;35.50;21.27;;;10.70;99.90;;;;;;21058165;28;20172;-54
2022/05/13 03:09:41;;;;;;;47.53;23.25;;;10.70;99.90;;;;;;21072677;28;20036;-58
2022/05/13 03:19:44;;;;;;;38.13;21.75;;;10.60;99.90;;;;;;21072084;28;20031;-58
2022/05/13 03:29:47;;;;;;;40.40;22.63;;;10.40;99.90;;;;;;21071431;28;20105;-51
2022/05/13 03:39:49;;;;;;;43.30;22.98;;;10.30;99.90;;;;;;21071389;28;20032;-58
2022/05/13 03:49:51;;;;;;;38.17;21.63;;;10.30;99.90;;;;;;21069391;28;20044;-52
2022/05/13 03:59:54;;;;;;;41.05;23.35;;;10.40;99.90;;;;;;21068674;28;20069;-58
2022/05/13 04:09:56;;;;;;;44.58;22.58;;;10.30;99.90;;;;;;21067995;28;20660;-52
2022/05/13 04:19:59;;;;;;;43.38;22.10;;;10.40;99.90;;;;;;21067283;28;20036;-54
2022/05/13 04:30:04;;;;;;;39.08;22.55;;;10.70;99.90;;;;;;21067526;28;20097;-52
2022/05/13 04:40:08;;;;;;;37.78;21.58;;;10.90;99.90;;;;;;21065674;28;20557;-55
2022/05/13 04:50:10;;;;;;;34.83;19.67;;;11.10;99.90;;;;;;21143894;28;20043;-53
2022/05/13 05:00:14;;;;;;;34.80;20.45;;;11.30;99.90;;;;;;21127643;28;20039;-54
2022/05/13 05:10:20;;;;;;;34.00;19.02;;;11.50;99.90;;;;;;21129598;28;20039;-52
2022/05/13 05:20:24;;;;;;;35.03;19.23;;;11.60;99.90;;;;;;21130059;28;20573;-54
2022/05/13 05:30:27;;;;;;;33.15;16.98;;;11.90;99.90;;;;;;21129277;28;20035;-53
2022/05/13 05:40:31;;;;;;;28.27;14.95;;;12.10;99.90;;;;;;21129046;28;20035;-54
2022/05/13 05:50:35;;;;;;;23.65;13.75;;;12.50;99.90;;;;;;21060511;28;20051;-51
2022/05/13 06:00:41;;;;;;;21.90;11.25;;;13.00;99.90;;;;;;21062215;28;20044;-55
2022/05/13 06:10:44;;;;;;;15.77;9.77;;;14.00;99.90;;;;;;21060181;28;20086;-55
2022/05/13 06:20:47;;;;;;;14.88;8.00;;;15.20;99.90;;;;;;21064795;28;20109;-56
2022/05/13 06:30:49;;;;;;;12.25;7.65;;;17.60;99.90;;;;;;21075067;28;20044;-59
2022/05/13 06:40:54;;;;;;;10.35;7.03;;;20.80;99.90;;;;;;21076121;28;20062;-57
2022/05/13 06:50:56;;;;;;;10.68;6.78;;;25.70;99.30;;;;;;21151276;28;20400;-63
2022/05/13 07:00:59;;;;;;;15.05;9.55;;;25.80;97.90;;;;;;21143140;28;20171;-61
2022/05/13 07:11:01;;;;;;;12.63;8.45;;;26.10;95.20;;;;;;21141181;28;20031;-58
2022/05/13 07:21:04;;;;;;;12.52;9.65;;;26.10;95.30;;;;;;21158422;28;20027;-62
2022/05/13 07:31:08;;;;;;;11.13;7.53;;;25.80;95.80;;;;;;21138694;28;20040;-58
2022/05/13 07:41:16;;;;;;;10.88;7.55;;;25.60;96.00;;;;;;21157939;27;20529;-63
2022/05/13 07:51:18;;;;;;;13.48;9.15;;;25.80;96.00;;;;;;21195145;27;20141;-63
2022/05/13 08:01:21;;;;;;;9.75;8.05;;;25.30;94.70;;;;;;21201128;27;20159;-57
2022/05/13 08:11:26;;;;;;;10.15;8.10;;;25.10;95.50;;;;;;21130332;27;20076;-63
2022/05/13 08:21:29;;;;;;;9.88;8.18;;;24.90;96.80;;;;;;21206194;27;20035;-62
2022/05/13 08:31:33;;;;;;;12.20;9.00;;;24.30;96.10;;;;;;21156111;27;20035;-62
2022/05/13 08:41:41;;;;;;;11.43;8.50;;;22.40;98.00;;;;;;21150366;27;20051;-61
2022/05/13 08:53:06;;;;;;;12.82;9.55;;;21.30;99.90;;;;;;21156695;27;20036;-61
2022/05/13 09:02:47;;;;;;;11.88;9.05;;;20.60;99.90;;;;;;21168623;27;20031;-61
2022/05/13 09:13:07;;;;;;;12.50;9.02;;;20.40;99.90;;;;;;21161922;27;20032;-57
2022/05/13 09:23:11;;;;;;;12.10;9.35;;;20.30;99.90;;;;;;21161257;27;20039;-58
2022/05/13 09:33:27;;;;;;;14.52;10.25;;;20.60;99.90;;;;;;21201436;27;20450;-62
2022/05/13 09:43:36;;;;;;;15.82;10.52;;;21.10;99.90;;;;;;21174482;27;20151;-62
2022/05/13 09:53:39;;;;;;;13.70;10.10;;;21.30;99.90;;;;;;21146697;27;20039;-62
2022/05/13 10:03:58;;;;;;;16.20;10.65;;;21.70;99.90;;;;;;21171940;27;20294;-62
2022/05/13 10:14:05;;;;;;;15.10;11.38;;;21.80;99.90;;;;;;21158420;28;20036;-61
2022/05/13 10:24:53;;;;;;;14.93;10.68;;;22.10;99.90;;;;;;21162288;28;20036;-57
2022/05/13 10:35:00;;;;;;;16.52;11.80;;;22.50;99.90;;;;;;20864656;28;20076;-62
2022/05/13 10:45:19;;;;;;;15.50;10.32;;;22.90;99.90;;;;;;20867676;28;20076;-61
2022/05/13 10:55:59;;;;;;;20.88;11.82;;;23.00;99.90;;;;;;20867095;28;20506;-61
2022/05/13 11:06:14;;;;;;;17.40;13.60;;;23.20;99.90;;;;;;20975994;27;20035;-61
2022/05/13 11:16:33;;;;;;;18.23;11.88;;;23.30;99.90;;;;;;21139519;28;20435;-61
2022/05/13 11:26:41;;;;;;;18.02;13.18;;;23.00;99.90;;;;;;21192805;27;20118;-61
2022/05/13 11:36:44;;;;;;;20.95;14.60;;;22.30;99.90;;;;;;21163381;27;20031;-56
2022/05/13 11:47:25;;;;;;;16.38;12.60;;;22.10;99.90;;;;;;21203361;27;20047;-61
2022/05/13 11:57:42;;;;;;;20.50;15.32;;;23.00;99.90;;;;;;21176937;27;20039;-61
2022/05/13 12:08:03;;;;;;;22.85;15.20;;;22.90;99.90;;;;;;21166752;27;20476;-60
2022/05/13 12:18:20;;;;;;;18.30;14.20;;;22.50;99.90;;;;;;21189535;27;20084;-56
2022/05/13 12:28:29;;;;;;;23.33;15.20;;;22.30;99.90;;;;;;21150137;27;20151;-62
2022/05/13 12:39:11;;;;;;;21.48;14.80;;;22.40;99.90;;;;;;21181405;27;20035;-57
2022/05/13 12:49:25;;;;;;;22.88;16.00;;;22.40;99.90;;;;;;21218140;27;20375;-57
2022/05/13 12:59:33;;;;;;;22.67;15.55;;;22.10;99.90;;;;;;21165957;27;20432;-57
2022/05/13 13:09:41;;;;;;;;;;;22.00;99.90;;;;;;21128770;28;20077;-62
2022/05/13 13:19:46;;;;;;;19.80;14.20;;;21.60;99.90;;;;;;21202967;27;19956;-62
2022/05/13 13:29:50;;;;;;;19.65;13.38;;;21.80;99.90;;;;;;21156849;27;20065;-62
2022/05/13 13:39:55;;;;;;;16.20;12.30;;;23.20;99.90;;;;;;21188715;27;20465;-62
2022/05/13 13:49:58;;;;;;;16.35;12.68;;;24.70;99.90;;;;;;21045383;28;20289;-58
2022/05/13 14:00:20;;;;;;;19.27;13.88;;;25.00;99.90;;;;;;21061465;28;20032;-58
2022/05/13 14:10:38;;;;;;;14.82;11.00;;;24.90;99.90;;;;;;21062053;28;20094;-57
2022/05/13 14:20:41;;;;;;;11.25;8.15;;;25.00;98.80;;;;;;21060943;28;20101;-62
2022/05/13 14:30:52;;;;;;;12.73;9.88;;;24.90;98.10;;;;;;21060384;28;20040;-62
2022/05/13 14:40:57;;;;;;;11.23;7.97;;;24.90;96.60;;;;;;21063259;28;20032;-62
2022/05/13 14:51:21;;;;;;;9.55;7.38;;;24.80;96.00;;;;;;21160637;27;20036;-62
2022/05/13 15:01:26;;;;;;;10.48;7.45;;;25.00;95.00;;;;;;21174704;27;20403;-62
2022/05/13 15:11:28;;;;;;;13.95;7.70;;;25.10;95.40;;;;;;21181102;27;20635;-63
2022/05/13 15:21:31;;;;;;;12.93;8.32;;;25.20;94.10;;;;;;21190976;27;20028;-63
2022/05/13 15:31:34;;;;;;;10.18;7.90;;;25.30;94.10;;;;;;21215832;27;20035;-63
2022/05/13 15:41:37;;;;;;;13.80;7.57;;;24.90;93.30;;;;;;21149399;27;20051;-62
2022/05/13 16:02:01;;;;;;;13.55;6.57;;;24.00;94.60;;;;;;21209610;27;20096;-62
2022/05/13 16:12:05;;;;;;;13.05;7.07;;;23.80;94.20;;;;;;21153936;27;20465;-59
2022/05/13 16:22:11;;;;;;;11.57;7.20;;;22.30;95.10;;;;;;21157542;27;20089;-55
2022/05/13 16:32:15;;;;;;;13.73;7.00;;;20.20;97.50;;;;;;21210785;27;20092;-60
2022/05/13 16:42:18;;;;;;;13.65;7.10;;;18.60;99.60;;;;;;21113474;28;20345;-61
2022/05/13 16:52:23;;;;;;;10.27;6.18;;;17.40;99.90;;;;;;21088135;28;20546;-60
2022/05/13 17:02:26;;;;;;;10.52;6.60;;;16.70;99.90;;;;;;21117280;28;20043;-55
2022/05/13 17:22:50;;;;;;;19.35;8.50;;;16.20;99.90;;;;;;21147633;28;20036;-54
2022/05/13 17:32:54;;;;;;;13.05;5.68;;;15.80;99.90;;;;;;21078999;28;20085;-59
2022/05/13 17:42:59;;;;;;;15.40;6.75;;;15.60;99.90;;;;;;21146756;28;20530;-59
2022/05/13 17:53:03;;;;;;;12.10;7.25;;;15.30;99.90;;;;;;21081334;28;20108;-59
2022/05/13 18:03:08;;;;;;;9.73;6.15;;;14.70;99.90;;;;;;21120348;28;20068;-58
2022/05/13 18:13:12;;;;;;;10.85;5.97;;;14.00;99.90;;;;;;21103934;28;20070;-54
2022/05/13 18:23:15;;;;;;;28.98;8.50;;;13.70;99.90;;;;;;21133217;28;20027;-59
2022/05/13 18:33:19;;;;;;;13.13;7.13;;;13.30;99.90;;;;;;21133753;28;20039;-52
2022/05/13 18:53:45;;;;;;;15.63;8.75;;;12.70;99.90;;;;;;21198117;27;20038;-54
2022/05/13 19:03:49;;;;;;;15.25;7.60;;;12.30;99.90;;;;;;21228957;27;20067;-54
2022/05/13 19:13:53;;;;;;;17.38;10.32;;;12.00;99.90;;;;;;21195629;27;20047;-58
2022/05/13 19:23:56;;;;;;;13.27;8.45;;;11.80;99.90;;;;;;21182309;27;20039;-53
2022/05/13 19:34:00;;;;;;;12.50;7.78;;;11.80;99.90;;;;;;21175528;27;20058;-54
2022/05/13 19:44:05;;;;;;;13.60;7.60;;;11.70;99.90;;;;;;21218747;27;20119;-58
2022/05/13 19:54:09;;;;;;;13.32;7.45;;;11.60;99.90;;;;;;21205869;27;20095;-55
2022/05/13 20:04:13;;;;;;;16.67;9.30;;;11.80;99.90;;;;;;21189186;27;20035;-59
2022/05/13 20:14:17;;;;;;;13.50;7.43;;;12.10;99.90;;;;;;21166047;27;20039;-59
2022/05/13 20:24:19;;;;;;;14.65;7.03;;;12.30;99.90;;;;;;21152220;27;20031;-60
2022/05/13 20:34:23;;;;;;;14.45;8.23;;;12.50;99.90;;;;;;21176940;27;20089;-53
2022/05/13 20:44:25;;;;;;;9.88;6.47;;;12.60;99.90;;;;;;21151701;27;20051;-59
2022/05/13 20:54:28;;;;;;;13.35;7.25;;;12.60;99.90;;;;;;21195676;27;20118;-60
2022/05/13 21:04:37;;;;;;;14.10;7.13;;;12.80;99.90;;;;;;21140089;27;20093;-58
2022/05/13 21:14:41;;;;;;;12.93;7.83;;;12.90;99.90;;;;;;21148798;27;20027;-59
2022/05/13 21:24:43;;;;;;;13.40;7.93;;;12.70;99.90;;;;;;21151537;27;20035;-59
2022/05/13 21:45:08;;;;;;;12.43;7.50;;;12.10;99.90;;;;;;21202637;27;20051;-54
2022/05/13 21:55:12;;;;;;;11.88;7.22;;;11.90;99.90;;;;;;21136995;27;20035;-51
2022/05/13 22:05:15;;;;;;;17.20;8.57;;;11.70;99.90;;;;;;21150349;27;20081;-58
2022/05/13 22:15:19;;;;;;;14.05;8.48;;;11.40;99.90;;;;;;21167488;28;20027;-53
2022/05/13 22:25:22;;;;;;;15.55;8.63;;;11.30;99.90;;;;;;21182085;28;20031;-53
2022/05/13 22:35:24;;;;;;;15.43;9.48;;;11.10;99.90;;;;;;21192998;28;20084;-53
2022/05/13 22:45:27;;;;;;;18.17;10.85;;;11.10;99.90;;;;;;21194179;28;20065;-58
2022/05/13 22:55:31;;;;;;;14.00;9.25;;;11.10;99.90;;;;;;21187434;28;20445;-54
2022/05/13 23:11:15;;;;;;;15.85;9.13;;;11.10;99.90;;;;;;21131688;28;20039;-52
2022/05/13 23:15:56;;;;;;;19.65;10.65;;;11.00;99.90;;;;;;21187776;27;20040;-54
2022/05/13 23:25:59;;;;;;;23.27;12.77;;;10.90;99.90;;;;;;21167245;27;20061;-58
2022/05/13 23:36:01;;;;;;;20.42;10.93;;;10.80;99.90;;;;;;21148084;27;20035;-54
2022/05/13 23:46:04;;;;;;;20.23;12.38;;;10.70;99.90;;;;;;21206563;27;20055;-53
2022/05/13 23:56:14;;;;;;;25.42;14.27;;;10.70;99.90;;;;;;21198048;27;20076;-51
